Time;durP1;ratioP1;P1;durP2;ratioP2;P2;SDS_P1;SDS_P2;PMS_P1;PMS_P2;Temp;Humidity;BMP_temperature;BMP_pressure;BME280_temperature;BME280_humidity;BME280_pressure;Samples;Min_cycle;Max_cycle;Signal;HPM_P1;HPM_P2
2022/11/19 00:00:51;;;;;;;;;;;1.90;99.90;;;;;;5154580;27;20272;-40
2022/11/19 00:03:18;;;;;;;;;;;1.90;99.90;;;;;;5154473;27;19913;-40
2022/11/19 00:05:48;;;;;;;;;;;1.90;99.90;;;;;;5153271;27;19994;-40
2022/11/19 00:08:17;;;;;;;;;;;1.90;99.90;;;;;;5152789;27;19919;-41
2022/11/19 00:10:43;;;;;;;;;;;1.90;99.90;;;;;;5154076;27;19930;-40
2022/11/19 00:13:09;;;;;;;;;;;1.90;99.90;;;;;;5153646;27;20325;-40
2022/11/19 00:15:35;;;;;;;;;;;1.90;99.90;;;;;;5154428;27;20041;-40
2022/11/19 00:18:00;;;;;;;;;;;1.90;99.90;;;;;;5154453;27;20001;-40
2022/11/19 00:20:26;;;;;;;;;;;1.90;99.90;;;;;;5153339;27;19930;-40
2022/11/19 00:22:53;;;;;;;;;;;1.80;99.90;;;;;;5154303;27;19998;-39
2022/11/19 00:25:22;;;;;;;;;;;1.80;99.90;;;;;;5154360;27;19998;-40
2022/11/19 00:27:47;;;;;;;;;;;1.80;99.90;;;;;;5153556;27;19915;-40
2022/11/19 00:30:13;;;;;;;;;;;1.80;99.90;;;;;;5154076;27;20379;-40
2022/11/19 00:32:39;;;;;;;;;;;1.80;99.90;;;;;;5153659;27;19914;-40
2022/11/19 00:35:05;;;;;;;;;;;1.70;99.90;;;;;;5154153;27;20005;-40
2022/11/19 00:37:30;;;;;;;;;;;1.70;99.90;;;;;;5153904;27;19907;-40
2022/11/19 00:39:56;;;;;;;;;;;1.70;99.90;;;;;;5153239;27;20001;-40
2022/11/19 00:42:22;;;;;;;;;;;1.70;99.90;;;;;;5154219;27;19907;-39
2022/11/19 00:44:47;;;;;;;;;;;1.70;99.90;;;;;;5154071;27;19935;-40
2022/11/19 00:47:13;;;;;;;;;;;1.70;99.90;;;;;;5152891;27;19927;-40
2022/11/19 00:49:38;;;;;;;;;;;1.70;99.90;;;;;;5154219;27;20298;-40
2022/11/19 00:52:04;;;;;;;;;;;1.70;99.90;;;;;;5154065;27;20321;-40
2022/11/19 00:54:29;;;;;;;;;;;1.70;99.90;;;;;;5153288;27;19907;-40
2022/11/19 00:56:55;;;;;;;;;;;1.70;99.90;;;;;;5154007;27;20277;-40
2022/11/19 00:59:20;;;;;;;;;;;1.60;99.90;;;;;;5153906;27;20291;-39
2022/11/19 01:01:46;;;;;;;;;;;1.50;99.90;;;;;;5153114;27;19907;-39
2022/11/19 01:04:11;;;;;;;;;;;1.50;99.90;;;;;;5154033;27;19907;-40
2022/11/19 01:06:37;;;;;;;;;;;1.50;99.90;;;;;;5153331;27;19919;-40
2022/11/19 01:09:03;;;;;;;;;;;1.50;99.90;;;;;;5152698;27;19939;-40
2022/11/19 01:11:29;;;;;;;;;;;1.40;99.90;;;;;;5153715;27;20300;-40
2022/11/19 01:13:55;;;;;;;;;;;1.30;99.90;;;;;;5153784;27;19911;-40
2022/11/19 01:16:25;;;;;;;;;;;1.30;99.90;;;;;;5153170;27;20331;-40
2022/11/19 01:18:51;;;;;;;;;;;1.30;99.90;;;;;;5153769;27;19914;-39
2022/11/19 01:21:18;;;;;;;;;;;1.30;99.90;;;;;;5155578;27;19911;-40
2022/11/19 01:23:44;;;;;;;;;;;1.20;99.90;;;;;;5156660;27;19911;-40
2022/11/19 01:26:10;;;;;;;;;;;1.20;99.90;;;;;;5157414;27;19960;-40
2022/11/19 01:28:36;;;;;;;;;;;1.20;99.90;;;;;;5157433;27;19954;-39
2022/11/19 01:31:21;;;;;;;;;;;1.10;99.90;;;;;;5156862;27;19958;-40
2022/11/19 01:33:47;;;;;;;;;;;1.10;99.90;;;;;;5156641;27;19907;-40
2022/11/19 01:36:14;;;;;;;;;;;1.10;99.90;;;;;;5156565;27;19914;-39
2022/11/19 01:38:39;;;;;;;;;;;1.10;99.90;;;;;;5157057;27;20350;-39
2022/11/19 01:41:05;;;;;;;;;;;1.10;99.90;;;;;;5156947;27;19918;-40
2022/11/19 01:43:40;;;;;;;;;;;1.00;99.90;;;;;;5156537;27;20357;-39
2022/11/19 01:46:05;;;;;;;;;;;1.00;99.90;;;;;;5156823;27;19954;-39
2022/11/19 01:48:31;;;;;;;;;;;1.00;99.90;;;;;;5157030;27;19958;-40
2022/11/19 01:51:15;;;;;;;;;;;1.00;99.90;;;;;;5156375;27;19955;-40
2022/11/19 01:53:44;;;;;;;;;;;1.00;99.90;;;;;;5156282;27;22424;-40
2022/11/19 01:56:10;;;;;;;;;;;1.00;99.90;;;;;;5156971;27;20331;-38
2022/11/19 01:58:44;;;;;;;;;;;1.00;99.90;;;;;;5156267;27;19911;-40
2022/11/19 02:01:09;;;;;;;;;;;0.90;99.90;;;;;;5156960;27;20410;-40
2022/11/19 02:03:36;;;;;;;;;;;0.90;99.90;;;;;;5156822;27;19915;-40
2022/11/19 02:06:02;;;;;;;;;;;0.90;99.90;;;;;;5155419;27;19954;-40
2022/11/19 02:08:32;;;;;;;;;;;0.80;99.90;;;;;;5156348;27;19962;-40
2022/11/19 02:11:04;;;;;;;;;;;0.80;99.90;;;;;;5156495;27;20002;-39
2022/11/19 02:13:35;;;;;;;;;;;0.80;99.90;;;;;;5156289;27;20369;-39
2022/11/19 02:16:08;;;;;;;;;;;0.80;99.90;;;;;;5156711;27;19907;-38
2022/11/19 02:18:43;;;;;;;;;;;0.80;99.90;;;;;;5155450;27;19957;-39
2022/11/19 02:21:16;;;;;;;;;;;0.70;99.90;;;;;;5156535;27;19907;-38
2022/11/19 02:23:54;;;;;;;;;;;0.70;99.90;;;;;;5156598;27;19927;-40
2022/11/19 02:26:33;;;;;;;;;;;0.60;99.90;;;;;;5155595;27;19913;-39
2022/11/19 02:29:07;;;;;;;;;;;0.60;99.90;;;;;;5156314;27;19911;-39
2022/11/19 02:31:39;;;;;;;;;;;0.60;99.90;;;;;;5156206;27;20006;-39
2022/11/19 02:34:10;;;;;;;;;;;0.50;99.90;;;;;;5154816;27;19911;-39
2022/11/19 02:36:41;;;;;;;;;;;0.50;99.90;;;;;;5156292;27;19920;-40
2022/11/19 02:39:12;;;;;;;;;;;0.50;99.90;;;;;;5156203;27;19914;-39
2022/11/19 02:41:38;;;;;;;;;;;0.50;99.90;;;;;;5155379;27;19915;-39
2022/11/19 02:46:54;;;;;;;;;;;0.50;99.90;;;;;;5154791;27;20322;-39
2022/11/19 02:49:22;;;;;;;;;;;0.40;99.90;;;;;;5155660;27;19911;-39
2022/11/19 02:51:48;;;;;;;;;;;0.40;99.90;;;;;;5155857;27;19914;-39
2022/11/19 02:54:17;;;;;;;;;;;0.40;99.90;;;;;;5155397;27;19908;-39
2022/11/19 02:56:53;;;;;;;;;;;0.40;99.90;;;;;;5155824;27;20373;-39
2022/11/19 03:04:52;;;;;;;;;;;0.30;99.90;;;;;;5156052;27;20281;-39
2022/11/19 03:07:18;;;;;;;;;;;0.30;99.90;;;;;;5155380;27;19919;-40
2022/11/19 03:09:48;;;;;;;;;;;0.30;99.90;;;;;;5154754;27;19951;-39
2022/11/19 03:12:13;;;;;;;;;;;0.30;99.90;;;;;;5155564;27;19907;-38
2022/11/19 03:17:48;;;;;;;;;;;0.30;99.90;;;;;;5155100;27;19926;-40
2022/11/19 03:20:21;;;;;;;;;;;0.20;99.90;;;;;;5155302;27;19907;-39
2022/11/19 03:22:57;;;;;;;;;;;0.20;99.90;;;;;;5154489;27;19907;-38
2022/11/19 03:25:27;;;;;;;;;;;0.20;99.90;;;;;;5155185;27;19959;-39
2022/11/19 03:27:56;;;;;;;;;;;0.10;99.90;;;;;;5154946;27;19922;-39
2022/11/19 03:30:22;;;;;;;;;;;0.10;99.90;;;;;;5154462;27;20390;-39
2022/11/19 03:32:51;;;;;;;;;;;0.10;99.90;;;;;;5155101;27;19965;-38
2022/11/19 03:35:19;;;;;;;;;;;0.10;99.90;;;;;;5155107;27;19959;-39
2022/11/19 03:37:49;;;;;;;;;;;0.10;99.90;;;;;;5154251;27;19951;-39
2022/11/19 03:40:16;;;;;;;;;;;0.00;99.90;;;;;;5155113;27;19907;-38
2022/11/19 03:42:42;;;;;;;;;;;0.00;99.90;;;;;;5154211;27;19908;-40
2022/11/19 03:45:10;;;;;;;;;;;0.00;99.90;;;;;;5135997;27;20456;-39
2022/11/19 03:47:37;;;;;;;;;;;0.00;99.90;;;;;;5154190;27;19925;-40
2022/11/19 03:50:11;;;;;;;;;;;0.00;99.90;;;;;;5153978;27;19911;-39
2022/11/19 03:52:37;;;;;;;;;;;0.00;99.90;;;;;;5154774;27;19955;-39
2022/11/19 03:55:02;;;;;;;;;;;-0.10;99.90;;;;;;5154729;27;19994;-39
2022/11/19 03:57:28;;;;;;;;;;;-0.10;99.90;;;;;;5153907;27;19907;-39
2022/11/19 03:59:53;;;;;;;;;;;0.00;99.90;;;;;;5154606;27;19907;-39
2022/11/19 04:02:19;;;;;;;;;;;-0.10;99.90;;;;;;5154744;27;20250;-39
2022/11/19 04:04:44;;;;;;;;;;;-0.10;99.90;;;;;;5153746;27;19947;-39
2022/11/19 04:07:14;;;;;;;;;;;-0.10;99.90;;;;;;5154544;27;20037;-39
2022/11/19 04:09:39;;;;;;;;;;;-0.10;99.90;;;;;;5154540;27;19911;-39
2022/11/19 04:12:05;;;;;;;;;;;-0.10;99.90;;;;;;5153741;27;19911;-39
2022/11/19 04:14:31;;;;;;;;;;;-0.20;99.90;;;;;;5154265;27;19934;-38
2022/11/19 04:16:57;;;;;;;;;;;-0.20;99.90;;;;;;5153846;27;19918;-38
2022/11/19 04:19:22;;;;;;;;;;;-0.20;99.90;;;;;;5153623;27;19907;-39
2022/11/19 04:21:48;;;;;;;;;;;-0.20;99.90;;;;;;5154191;27;19918;-39
2022/11/19 04:24:14;;;;;;;;;;;-0.20;99.90;;;;;;5154326;27;19907;-39
2022/11/19 04:26:39;;;;;;;;;;;-0.20;99.90;;;;;;5153521;27;20062;-39
2022/11/19 04:29:05;;;;;;;;;;;-0.30;99.90;;;;;;5154261;27;20005;-39
2022/11/19 04:31:30;;;;;;;;;;;-0.30;99.90;;;;;;5154291;27;19930;-39
2022/11/19 04:33:56;;;;;;;;;;;-0.30;99.90;;;;;;5153510;27;19915;-40
2022/11/19 04:36:21;;;;;;;;;;;-0.30;99.90;;;;;;5154272;27;20353;-39
2022/11/19 04:38:47;;;;;;;;;;;-0.30;99.90;;;;;;5154000;27;19913;-38
2022/11/19 04:41:12;;;;;;;;;;;-0.30;99.90;;;;;;5154248;27;19998;-39
2022/11/19 04:43:38;;;;;;;;;;;-0.30;99.90;;;;;;5153838;27;19911;-40
2022/11/19 04:46:03;;;;;;;;;;;-0.30;99.90;;;;;;5153505;27;20410;-39
2022/11/19 04:48:29;;;;;;;;;;;-0.40;99.90;;;;;;5153854;27;19919;-39
2022/11/19 04:50:54;;;;;;;;;;;-0.40;99.90;;;;;;5154121;27;19921;-39
2022/11/19 04:53:19;;;;;;;;;;;-0.40;99.90;;;;;;5153548;27;20422;-39
2022/11/19 04:55:45;;;;;;;;;;;-0.40;99.90;;;;;;5155261;27;19911;-39
2022/11/19 04:58:10;;;;;;;;;;;-0.40;99.90;;;;;;5158139;27;19966;-38
2022/11/19 05:00:36;;;;;;;;;;;-0.40;99.90;;;;;;5157338;27;19907;-39
2022/11/19 05:03:01;;;;;;;;;;;-0.50;99.90;;;;;;5157941;27;19914;-40
2022/11/19 05:05:27;;;;;;;;;;;-0.50;99.90;;;;;;5158203;27;20323;-39
2022/11/19 05:07:52;;;;;;;;;;;-0.50;99.90;;;;;;5156142;27;19915;-39
2022/11/19 05:10:18;;;;;;;;;;;-0.50;99.90;;;;;;5157159;27;20429;-39
2022/11/19 05:12:43;;;;;;;;;;;-0.50;99.90;;;;;;5156548;27;19911;-39
2022/11/19 05:15:09;;;;;;;;;;;-0.50;99.90;;;;;;5156138;27;19997;-39
2022/11/19 05:17:34;;;;;;;;;;;-0.50;99.90;;;;;;5157814;27;20369;-39
2022/11/19 05:20:00;;;;;;;;;;;-0.50;99.90;;;;;;5157666;27;19907;-39
2022/11/19 05:22:25;;;;;;;;;;;-0.60;99.90;;;;;;5157064;27;19978;-39
2022/11/19 05:24:51;;;;;;;;;;;-0.50;99.90;;;;;;5157540;27;19908;-40
2022/11/19 05:27:16;;;;;;;;;;;-0.60;99.90;;;;;;5157490;27;19916;-38
2022/11/19 05:29:42;;;;;;;;;;;-0.60;99.90;;;;;;5156823;27;20396;-39
2022/11/19 05:32:07;;;;;;;;;;;-0.60;99.90;;;;;;5157440;27;20381;-40
2022/11/19 05:34:33;;;;;;;;;;;-0.60;99.90;;;;;;5157410;27;20006;-39
2022/11/19 05:36:58;;;;;;;;;;;-0.60;99.90;;;;;;5156655;27;20339;-39
2022/11/19 05:39:23;;;;;;;;;;;-0.60;99.90;;;;;;5157510;27;19907;-38
2022/11/19 05:41:49;;;;;;;;;;;-0.60;99.90;;;;;;5157176;27;19933;-40
2022/11/19 05:44:15;;;;;;;;;;;-0.60;99.90;;;;;;5156230;27;20361;-40
2022/11/19 05:46:40;;;;;;;;;;;-0.60;99.90;;;;;;5156709;27;20236;-40
2022/11/19 05:49:05;;;;;;;;;;;-0.70;99.90;;;;;;5156938;27;19932;-40
2022/11/19 05:51:31;;;;;;;;;;;-0.70;99.90;;;;;;5156636;27;19907;-38
2022/11/19 05:53:56;;;;;;;;;;;-0.70;99.90;;;;;;5157031;27;20262;-39
2022/11/19 05:56:22;;;;;;;;;;;-0.70;99.90;;;;;;5156182;27;19907;-39
2022/11/19 05:58:47;;;;;;;;;;;-0.70;99.90;;;;;;5156661;27;19959;-40
2022/11/19 06:01:13;;;;;;;;;;;-0.70;99.90;;;;;;5156974;27;19907;-39
2022/11/19 06:03:39;;;;;;;;;;;-0.70;99.90;;;;;;5155973;27;19915;-40
2022/11/19 06:06:05;;;;;;;;;;;-0.70;99.90;;;;;;5156805;27;19919;-40
2022/11/19 06:08:30;;;;;;;;;;;-0.70;99.90;;;;;;5156559;27;19915;-40
2022/11/19 06:10:56;;;;;;;;;;;-0.70;99.90;;;;;;5155885;27;19907;-39
2022/11/19 06:13:21;;;;;;;;;;;-0.70;99.90;;;;;;5156081;27;19950;-39
2022/11/19 06:15:47;;;;;;;;;;;-0.80;99.90;;;;;;5156430;27;19907;-40
2022/11/19 06:18:12;;;;;;;;;;;-0.80;99.90;;;;;;5155584;27;19907;-39
2022/11/19 06:20:38;;;;;;;;;;;-0.80;99.90;;;;;;5156574;27;20306;-40
2022/11/19 06:23:03;;;;;;;;;;;-0.80;99.90;;;;;;5156242;27;19915;-40
2022/11/19 06:25:29;;;;;;;;;;;-0.80;99.90;;;;;;5155572;27;20326;-38
2022/11/19 06:27:54;;;;;;;;;;;-0.80;99.90;;;;;;5156271;27;19925;-38
2022/11/19 06:30:20;;;;;;;;;;;-0.80;99.90;;;;;;5156337;27;19907;-38
2022/11/19 06:32:45;;;;;;;;;;;-0.90;99.90;;;;;;5155282;27;19911;-38
2022/11/19 06:35:10;;;;;;;;;;;-0.90;99.90;;;;;;5156207;27;19952;-39
2022/11/19 06:37:36;;;;;;;;;;;-0.90;99.90;;;;;;5156241;27;19907;-39
2022/11/19 06:40:02;;;;;;;;;;;-0.90;99.90;;;;;;5155218;27;20350;-38
2022/11/19 06:42:37;;;;;;;;;;;-0.90;99.90;;;;;;5156154;27;19914;-39
2022/11/19 06:45:10;;;;;;;;;;;-0.90;99.90;;;;;;5155187;27;19944;-38
2022/11/19 06:47:35;;;;;;;;;;;-0.90;99.90;;;;;;5154403;27;19945;-39
2022/11/19 06:50:01;;;;;;;;;;;-1.00;99.90;;;;;;5155383;27;19907;-38
2022/11/19 06:52:27;;;;;;;;;;;-1.00;99.90;;;;;;5155093;27;19952;-39
2022/11/19 06:54:52;;;;;;;;;;;-1.00;99.90;;;;;;5155778;27;20392;-40
2022/11/19 06:57:18;;;;;;;;;;;-1.00;99.90;;;;;;5155661;27;19998;-40
2022/11/19 06:59:43;;;;;;;;;;;-1.00;99.90;;;;;;5154356;27;19911;-39
2022/11/19 07:02:10;;;;;;;;;;;-1.00;99.90;;;;;;5155707;27;19916;-39
2022/11/19 07:04:35;;;;;;;;;;;-1.00;99.90;;;;;;5154829;27;19918;-39
2022/11/19 07:07:01;;;;;;;;;;;-1.00;99.90;;;;;;5152514;27;19919;-39
2022/11/19 07:09:26;;;;;;;;;;;-1.00;99.90;;;;;;5154344;27;19911;-39
2022/11/19 07:11:52;;;;;;;;;;;-1.00;99.90;;;;;;5154234;27;19907;-39
2022/11/19 07:14:17;;;;;;;;;;;-1.00;99.90;;;;;;5153252;27;19907;-38
2022/11/19 07:16:43;;;;;;;;;;;-1.00;99.90;;;;;;5154193;27;19907;-38
2022/11/19 07:19:08;;;;;;;;;;;-1.00;99.90;;;;;;5153397;27;20355;-39
2022/11/19 07:21:34;;;;;;;;;;;-1.00;99.90;;;;;;5154021;27;19907;-39
2022/11/19 07:24:01;;;;;;;;;;;-1.00;99.90;;;;;;5154689;27;19911;-39
2022/11/19 07:26:27;;;;;;;;;;;-1.00;99.90;;;;;;5154477;27;19907;-40
2022/11/19 07:28:52;;;;;;;;;;;-0.90;99.90;;;;;;5153599;27;20318;-39
2022/11/19 07:31:18;;;;;;;;;;;-0.90;99.90;;;;;;5154305;27;19907;-39
2022/11/19 07:33:43;;;;;;;;;;;-0.90;99.90;;;;;;5154478;27;19907;-40
2022/11/19 07:36:10;;;;;;;;;;;-0.90;99.90;;;;;;5153521;27;19907;-39
2022/11/19 07:38:36;;;;;;;;;;;-0.90;99.90;;;;;;5153311;27;19919;-40
2022/11/19 07:42:47;;;;;;;;;;;-0.80;99.90;;;;;;5153851;27;19908;-40
2022/11/19 07:43:47;;;;;;;;;;;-0.80;99.90;;;;;;5153464;27;19918;-40
2022/11/19 07:46:12;;;;;;;;;;;-0.80;99.90;;;;;;5152806;27;19911;-38
2022/11/19 07:48:38;;;;;;;;;;;-0.70;99.90;;;;;;5153803;27;19926;-39
2022/11/19 07:51:03;;;;;;;;;;;-0.70;99.90;;;;;;5153029;27;20353;-38
2022/11/19 07:53:29;;;;;;;;;;;-0.70;99.90;;;;;;5154325;27;19907;-39
2022/11/19 07:55:54;;;;;;;;;;;-0.60;99.90;;;;;;5152994;27;19925;-38
2022/11/19 07:58:19;;;;;;;;;;;-0.60;99.90;;;;;;5153698;27;20099;-40
2022/11/19 08:00:45;;;;;;;;;;;-0.60;99.90;;;;;;5153840;27;20006;-39
2022/11/19 08:03:10;;;;;;;;;;;-0.50;99.90;;;;;;5152989;27;19907;-39
2022/11/19 08:05:37;;;;;;;;;;;-0.50;99.90;;;;;;5154030;27;20381;-40
2022/11/19 08:08:03;;;;;;;;;;;-0.50;99.90;;;;;;5152719;27;19930;-38
2022/11/19 08:10:29;;;;;;;;;;;-0.50;99.90;;;;;;5152996;27;19907;-40
2022/11/19 08:13:01;;;;;;;;;;;-0.40;99.90;;;;;;5153784;27;19911;-39
2022/11/19 08:15:28;;;;;;;;;;;-0.40;99.90;;;;;;5153561;27;19907;-39
2022/11/19 08:18:11;;;;;;;;;;;-0.30;99.90;;;;;;5152992;27;19909;-39
2022/11/19 08:20:41;;;;;;;;;;;-0.30;99.90;;;;;;5153914;27;20430;-40
2022/11/19 08:23:06;;;;;;;;;;;-0.30;99.90;;;;;;5153110;27;19908;-40
2022/11/19 08:25:32;;;;;;;;;;;-0.20;99.90;;;;;;5152821;27;19919;-39
2022/11/19 08:27:57;;;;;;;;;;;-0.20;99.90;;;;;;5153159;27;19919;-38
2022/11/19 08:30:22;;;;;;;;;;;-0.20;99.90;;;;;;5153786;27;19911;-39
2022/11/19 08:32:48;;;;;;;;;;;-0.10;99.90;;;;;;5157147;27;19907;-38
2022/11/19 08:35:14;;;;;;;;;;;-0.10;99.90;;;;;;5157579;27;20047;-39
2022/11/19 08:37:39;;;;;;;;;;;0.00;99.90;;;;;;5157748;27;19915;-40
2022/11/19 08:40:05;;;;;;;;;;;0.00;99.90;;;;;;5156311;27;19915;-38
2022/11/19 08:45:14;;;;;;;;;;;0.10;99.90;;;;;;5156770;27;20322;-40
2022/11/19 08:47:40;;;;;;;;;;;0.10;99.90;;;;;;5153167;27;20002;-39
2022/11/19 08:50:05;;;;;;;;;;;0.20;99.90;;;;;;5153100;27;20266;-39
2022/11/19 08:52:31;;;;;;;;;;;0.20;99.90;;;;;;5155667;27;19914;-38
2022/11/19 08:54:56;;;;;;;;;;;0.20;99.90;;;;;;5155997;27;19907;-38
2022/11/19 08:57:22;;;;;;;;;;;0.30;99.90;;;;;;5156501;27;19907;-39
2022/11/19 08:59:47;;;;;;;;;;;0.30;99.90;;;;;;5155703;27;19911;-40
2022/11/19 09:02:12;;;;;;;;;;;0.30;99.90;;;;;;5156169;27;20010;-40
2022/11/19 09:04:38;;;;;;;;;;;0.40;99.90;;;;;;5157374;27;19907;-37
2022/11/19 09:07:03;;;;;;;;;;;0.40;99.90;;;;;;5155500;27;19926;-40
2022/11/19 09:09:29;;;;;;;;;;;0.50;99.90;;;;;;5157181;27;20022;-38
2022/11/19 09:11:54;;;;;;;;;;;0.60;99.90;;;;;;5157167;27;19910;-39
2022/11/19 09:14:20;;;;;;;;;;;0.60;99.90;;;;;;5155976;27;19955;-39
2022/11/19 09:16:46;;;;;;;;;;;0.70;99.90;;;;;;5157124;27;19915;-38
2022/11/19 09:19:11;;;;;;;;;;;0.70;99.90;;;;;;5156925;27;20002;-41
2022/11/19 09:21:36;;;;;;;;;;;0.80;99.90;;;;;;5156230;27;20273;-39
2022/11/19 09:24:02;;;;;;;;;;;0.90;99.90;;;;;;5156626;27;19956;-38
2022/11/19 09:26:27;;;;;;;;;;;0.90;99.90;;;;;;5157177;27;19907;-38
2022/11/19 09:28:53;;;;;;;;;;;1.00;99.90;;;;;;5155981;27;19911;-38
2022/11/19 09:31:19;;;;;;;;;;;1.00;99.90;;;;;;5156695;27;19914;-38
2022/11/19 09:33:45;;;;;;;;;;;1.10;99.90;;;;;;5156893;27;20309;-39
2022/11/19 09:36:11;;;;;;;;;;;1.10;99.90;;;;;;5155660;27;20269;-40
2022/11/19 09:38:38;;;;;;;;;;;1.20;99.90;;;;;;5156473;27;19907;-40
2022/11/19 09:41:16;;;;;;;;;;;1.30;99.90;;;;;;5155841;27;19911;-40
2022/11/19 09:43:56;;;;;;;;;;;1.30;99.90;;;;;;5156625;27;20003;-39
2022/11/19 09:46:22;;;;;;;;;;;1.40;99.90;;;;;;5156243;27;20281;-38
2022/11/19 09:48:49;;;;;;;;;;;1.50;99.90;;;;;;5155561;27;19915;-39
2022/11/19 09:51:17;;;;;;;;;;;1.60;99.90;;;;;;5156350;27;19907;-39
2022/11/19 09:53:54;;;;;;;;;;;1.60;99.90;;;;;;5156550;27;19914;-39
2022/11/19 09:56:34;;;;;;;;;;;1.70;99.90;;;;;;5155539;27;20303;-40
2022/11/19 09:59:01;;;;;;;;;;;1.70;99.90;;;;;;5156329;27;19908;-40
2022/11/19 10:01:29;;;;;;;;;;;1.80;99.90;;;;;;5156414;27;19930;-40
2022/11/19 10:03:54;;;;;;;;;;;1.90;99.90;;;;;;5155387;27;20047;-40
2022/11/19 10:06:45;;;;;;;;;;;1.90;99.90;;;;;;5156132;27;20482;-39
2022/11/19 10:09:11;;;;;;;;;;;2.00;99.90;;;;;;5135277;27;19927;-40
2022/11/19 10:11:42;;;;;;;;;;;2.10;99.90;;;;;;5134139;27;19907;-39
2022/11/19 10:14:28;;;;;;;;;;;2.10;99.90;;;;;;5134751;27;19908;-38
2022/11/19 10:17:06;;;;;;;;;;;2.20;99.90;;;;;;5151730;27;19955;-39
2022/11/19 10:19:41;;;;;;;;;;;2.20;99.90;;;;;;5155555;27;20006;-39
2022/11/19 10:22:16;;;;;;;;;;;2.20;99.90;;;;;;5155747;27;20285;-39
2022/11/19 10:24:43;;;;;;;;;;;2.30;99.90;;;;;;5154494;27;20418;-39
2022/11/19 10:27:16;;;;;;;;;;;2.40;99.90;;;;;;5155466;27;19923;-38
2022/11/19 10:29:42;;;;;;;;;;;2.40;99.90;;;;;;5155590;27;19907;-39
2022/11/19 10:32:16;;;;;;;;;;;2.50;99.90;;;;;;5154591;27;19914;-38
2022/11/19 10:34:42;;;;;;;;;;;2.60;99.90;;;;;;5155849;27;19914;-40
2022/11/19 10:37:10;;;;;;;;;;;2.60;99.90;;;;;;5155032;27;19911;-38
2022/11/19 10:39:40;;;;;;;;;;;2.60;99.90;;;;;;5154064;27;19961;-40
2022/11/19 10:42:16;;;;;;;;;;;2.80;99.90;;;;;;5136426;27;19967;-40
2022/11/19 10:44:44;;;;;;;;;;;2.80;99.90;;;;;;5154418;27;20003;-40
2022/11/19 10:47:10;;;;;;;;;;;2.80;99.90;;;;;;5154667;27;19926;-40
2022/11/19 10:49:38;;;;;;;;;;;2.90;99.90;;;;;;5155388;27;19927;-38
2022/11/19 10:52:04;;;;;;;;;;;2.90;99.90;;;;;;5153841;27;19911;-39
2022/11/19 10:54:30;;;;;;;;;;;2.90;99.90;;;;;;5154360;27;19991;-39
2022/11/19 10:56:56;;;;;;;;;;;3.00;99.90;;;;;;5155011;27;19933;-40
2022/11/19 10:59:24;;;;;;;;;;;3.10;99.90;;;;;;5153981;27;19907;-40
2022/11/19 11:01:52;;;;;;;;;;;3.20;99.90;;;;;;5154476;27;19911;-39
2022/11/19 11:04:25;;;;;;;;;;;3.20;99.90;;;;;;5154593;27;19918;-40
2022/11/19 11:06:51;;;;;;;;;;;3.20;99.90;;;;;;5153851;27;19914;-39
2022/11/19 11:09:30;;;;;;;;;;;3.20;99.90;;;;;;5154784;27;20349;-40
2022/11/19 11:14:51;;;;;;;;;;;3.30;99.90;;;;;;5124145;27;19919;-40
2022/11/19 11:17:18;;;;;;;;;;;3.40;99.90;;;;;;5154405;27;20021;-39
2022/11/19 11:19:43;;;;;;;;;;;3.30;99.90;;;;;;5154050;27;19914;-42
2022/11/19 11:22:09;;;;;;;;;;;3.30;99.90;;;;;;5154455;27;19914;-39
2022/11/19 11:24:36;;;;;;;;;;;3.30;99.90;;;;;;5154708;27;19958;-39
2022/11/19 11:27:16;;;;;;;;;;;3.40;99.90;;;;;;5153498;27;19919;-40
2022/11/19 11:29:42;;;;;;;;;;;3.40;99.90;;;;;;5155023;27;19918;-39
2022/11/19 11:32:25;;;;;;;;;;;3.60;99.90;;;;;;5153946;27;20244;-39
2022/11/19 11:34:50;;;;;;;;;;;3.70;99.90;;;;;;5154133;27;20235;-40
2022/11/19 11:37:16;;;;;;;;;;;3.70;99.90;;;;;;5154255;27;20002;-39
2022/11/19 11:39:46;;;;;;;;;;;3.80;99.90;;;;;;5154505;27;20247;-39
2022/11/19 11:42:16;;;;;;;;;;;3.90;99.90;;;;;;5153515;27;20006;-39
2022/11/19 11:44:52;;;;;;;;;;;3.90;99.90;;;;;;5154483;27;19907;-40
2022/11/19 11:47:25;;;;;;;;;;;4.00;99.90;;;;;;5152704;27;20486;-39
2022/11/19 11:49:56;;;;;;;;;;;4.00;99.90;;;;;;5152785;27;19911;-39
2022/11/19 11:52:24;;;;;;;;;;;4.10;99.90;;;;;;5153448;27;19921;-40
2022/11/19 11:54:55;;;;;;;;;;;4.10;99.90;;;;;;5154079;27;19914;-40
2022/11/19 11:57:22;;;;;;;;;;;4.20;99.90;;;;;;5153558;27;19911;-40
2022/11/19 11:59:47;;;;;;;;;;;4.20;99.90;;;;;;5149900;27;19946;-39
2022/11/19 12:02:19;;;;;;;;;;;4.30;99.90;;;;;;5152643;27;19958;-40
2022/11/19 12:04:44;;;;;;;;;;;4.40;99.90;;;;;;5153797;27;19958;-39
2022/11/19 12:07:21;;;;;;;;;;;4.40;99.90;;;;;;5153523;27;20380;-39
2022/11/19 12:09:53;;;;;;;;;;;4.50;99.90;;;;;;5152887;27;19930;-40
2022/11/19 12:12:23;;;;;;;;;;;4.50;99.90;;;;;;5153531;27;19998;-40
2022/11/19 12:14:57;;;;;;;;;;;4.50;99.90;;;;;;5153016;27;19918;-40
2022/11/19 12:17:41;;;;;;;;;;;4.50;99.90;;;;;;5152805;27;20358;-40
2022/11/19 12:20:15;;;;;;;;;;;4.60;99.90;;;;;;5153292;27;19911;-40
2022/11/19 12:22:59;;;;;;;;;;;4.60;99.90;;;;;;5153809;27;20376;-40
2022/11/19 12:25:38;;;;;;;;;;;4.70;99.90;;;;;;5153271;27;20002;-39
2022/11/19 12:28:06;;;;;;;;;;;4.70;99.90;;;;;;5151897;27;19987;-40
2022/11/19 12:30:43;;;;;;;;;;;4.70;99.90;;;;;;5140498;27;19911;-40
2022/11/19 12:33:27;;;;;;;;;;;4.70;99.90;;;;;;5153184;27;20026;-39
2022/11/19 12:35:59;;;;;;;;;;;4.70;99.90;;;;;;5153097;27;19911;-39
2022/11/19 12:38:30;;;;;;;;;;;4.70;99.90;;;;;;5152496;27;19952;-39
2022/11/19 12:40:58;;;;;;;;;;;4.80;99.90;;;;;;5153649;27;19915;-40
2022/11/19 12:43:36;;;;;;;;;;;4.80;99.90;;;;;;5153200;27;20311;-40
2022/11/19 12:46:11;;;;;;;;;;;4.90;99.90;;;;;;5152485;27;19964;-39
2022/11/19 12:48:41;;;;;;;;;;;5.00;99.90;;;;;;5153508;27;19945;-39
2022/11/19 12:51:25;;;;;;;;;;;5.00;99.90;;;;;;5152714;27;20108;-38
2022/11/19 12:53:56;;;;;;;;;;;5.10;99.90;;;;;;5153423;27;19907;-40
2022/11/19 12:56:31;;;;;;;;;;;5.10;99.90;;;;;;5153191;27;19916;-40
2022/11/19 12:59:03;;;;;;;;;;;5.20;99.90;;;;;;5152692;27;19911;-39
2022/11/19 13:01:31;;;;;;;;;;;5.20;99.90;;;;;;5153486;27;19908;-39
2022/11/19 13:04:06;;;;;;;;;;;5.20;99.90;;;;;;5153272;27;19911;-40
2022/11/19 13:06:35;;;;;;;;;;;5.20;99.90;;;;;;5152469;27;19960;-40
2022/11/19 13:09:03;;;;;;;;;;;5.30;99.90;;;;;;5153053;27;19948;-40
2022/11/19 13:11:35;;;;;;;;;;;5.30;99.90;;;;;;5153370;27;20005;-39
2022/11/19 13:14:11;;;;;;;;;;;5.40;99.90;;;;;;5152281;27;19914;-40
2022/11/19 13:16:36;;;;;;;;;;;5.40;99.90;;;;;;5154050;27;19962;-39
2022/11/19 13:19:20;;;;;;;;;;;5.50;99.90;;;;;;5156680;27;20014;-40
2022/11/19 13:21:52;;;;;;;;;;;5.80;99.90;;;;;;5157193;27;20504;-39
2022/11/19 13:24:23;;;;;;;;;;;6.20;99.90;;;;;;5156726;27;20006;-38
2022/11/19 13:26:49;;;;;;;;;;;6.60;99.90;;;;;;5156100;27;19908;-39
2022/11/19 13:29:17;;;;;;;;;;;6.90;99.90;;;;;;5156845;27;19907;-39
2022/11/19 13:31:49;;;;;;;;;;;7.00;99.90;;;;;;5156983;27;19913;-40
2022/11/19 13:34:21;;;;;;;;;;;7.30;99.90;;;;;;5155844;27;19907;-39
2022/11/19 13:36:59;;;;;;;;;;;7.40;99.90;;;;;;5156822;27;19911;-39
2022/11/19 13:39:32;;;;;;;;;;;7.30;99.90;;;;;;5156590;27;19960;-39
2022/11/19 13:44:43;;;;;;;;;;;7.10;99.90;;;;;;5157111;27;19914;-39
2022/11/19 13:47:19;;;;;;;;;;;7.40;99.90;;;;;;5156280;27;19919;-40
2022/11/19 13:49:47;;;;;;;;;;;7.60;99.90;;;;;;5156030;27;20342;-39
2022/11/19 13:52:18;;;;;;;;;;;7.90;99.90;;;;;;5156428;27;20339;-39
2022/11/19 13:54:44;;;;;;;;;;;8.00;97.10;;;;;;5155334;27;20358;-39
2022/11/19 13:57:22;;;;;;;;;;;8.20;95.10;;;;;;5156056;27;19911;-40
2022/11/19 13:59:48;;;;;;;;;;;8.30;97.40;;;;;;5156436;27;19911;-40
2022/11/19 14:02:29;;;;;;;;;;;8.40;93.90;;;;;;5155141;27;19907;-39
2022/11/19 14:05:21;;;;;;;;;;;8.50;93.30;;;;;;5156112;27;20322;-40
2022/11/19 14:08:04;;;;;;;;;;;8.70;96.40;;;;;;5150865;27;20362;-39
2022/11/19 14:10:39;;;;;;;;;;;8.70;92.40;;;;;;5155396;27;20418;-40
2022/11/19 14:13:25;;;;;;;;;;;8.80;94.70;;;;;;5155600;27;19907;-40
2022/11/19 14:27:21;;;;;;;;;;;8.90;95.30;;;;;;5155624;27;19971;-40
2022/11/19 14:29:46;;;;;;;;;;;9.00;91.30;;;;;;5154466;27;19911;-40
2022/11/19 14:32:12;;;;;;;;;;;9.00;95.10;;;;;;5155561;27;19907;-40
2022/11/19 14:34:40;;;;;;;;;;;8.90;92.50;;;;;;5155733;27;19922;-40
2022/11/19 14:37:19;;;;;;;;;;;8.90;91.10;;;;;;5154560;27;20357;-41
2022/11/19 14:39:47;;;;;;;;;;;8.90;85.10;;;;;;5155562;27;19907;-40
2022/11/19 14:42:19;;;;;;;;;;;8.80;89.00;;;;;;5154794;27;19934;-40
2022/11/19 14:45:00;;;;;;;;;;;8.60;87.80;;;;;;5143914;27;19907;-40
2022/11/19 14:47:30;;;;;;;;;;;8.30;88.10;;;;;;5154727;27;20390;-40
2022/11/19 14:49:57;;;;;;;;;;;7.70;96.40;;;;;;5155528;27;19907;-40
2022/11/19 14:52:34;;;;;;;;;;;7.20;98.80;;;;;;5154357;27;19907;-39
2022/11/19 14:54:59;;;;;;;;;;;6.60;99.90;;;;;;5155690;27;20389;-39
2022/11/19 14:57:32;;;;;;;;;;;6.20;99.90;;;;;;5155057;27;20420;-40
2022/11/19 15:00:04;;;;;;;;;;;5.80;99.90;;;;;;5154619;27;20006;-40
2022/11/19 15:02:31;;;;;;;;;;;5.50;99.90;;;;;;5155235;27;19914;-40
2022/11/19 15:05:20;;;;;;;;;;;5.10;99.90;;;;;;5154317;27;19911;-40